sensor_id;sensor_type;location;lat;lon;timestamp;P1;durP1;ratioP1;P2;durP2;ratioP2
56653;SDS011;45096;52.302;4.634;2023-06-22T00:01:10;5.50;;;5.00;;
56653;SDS011;45096;52.302;4.634;2023-06-22T00:03:36;4.70;;;4.38;;
56653;SDS011;45096;52.302;4.634;2023-06-22T00:06:03;7.30;;;6.60;;
56653;SDS011;45096;52.302;4.634;2023-06-22T00:08:28;5.13;;;4.68;;
56653;SDS011;45096;52.302;4.634;2023-06-22T00:10:53;5.60;;;5.10;;
56653;SDS011;45096;52.302;4.634;2023-06-22T00:13:19;5.10;;;4.38;;
56653;SDS011;45096;52.302;4.634;2023-06-22T00:15:44;5.38;;;4.88;;
56653;SDS011;45096;52.302;4.634;2023-06-22T00:18:10;6.57;;;5.97;;
56653;SDS011;45096;52.302;4.634;2023-06-22T00:20:36;5.20;;;4.80;;
56653;SDS011;45096;52.302;4.634;2023-06-22T00:23:03;5.95;;;4.57;;
56653;SDS011;45096;52.302;4.634;2023-06-22T00:25:29;5.43;;;4.93;;
56653;SDS011;45096;52.302;4.634;2023-06-22T00:27:55;5.18;;;4.68;;
56653;SDS011;45096;52.302;4.634;2023-06-22T00:30:20;6.00;;;5.40;;
56653;SDS011;45096;52.302;4.634;2023-06-22T00:32:46;5.32;;;4.82;;
56653;SDS011;45096;52.302;4.634;2023-06-22T00:35:11;7.45;;;6.47;;
56653;SDS011;45096;52.302;4.634;2023-06-22T00:37:37;5.60;;;4.95;;
56653;SDS011;45096;52.302;4.634;2023-06-22T00:40:04;6.72;;;5.93;;
56653;SDS011;45096;52.302;4.634;2023-06-22T00:42:31;6.68;;;5.70;;
56653;SDS011;45096;52.302;4.634;2023-06-22T00:44:56;5.90;;;4.82;;
56653;SDS011;45096;52.302;4.634;2023-06-22T00:47:22;6.53;;;5.45;;
56653;SDS011;45096;52.302;4.634;2023-06-22T00:49:47;5.07;;;4.60;;
56653;SDS011;45096;52.302;4.634;2023-06-22T00:52:13;5.47;;;4.97;;
56653;SDS011;45096;52.302;4.634;2023-06-22T00:54:39;4.72;;;3.90;;
56653;SDS011;45096;52.302;4.634;2023-06-22T00:57:06;5.53;;;4.90;;
56653;SDS011;45096;52.302;4.634;2023-06-22T00:59:31;4.93;;;4.50;;
56653;SDS011;45096;52.302;4.634;2023-06-22T01:01:57;7.50;;;5.00;;
56653;SDS011;45096;52.302;4.634;2023-06-22T01:04:24;5.28;;;4.75;;
56653;SDS011;45096;52.302;4.634;2023-06-22T01:06:52;5.22;;;4.72;;
56653;SDS011;45096;52.302;4.634;2023-06-22T01:09:22;6.05;;;5.13;;
56653;SDS011;45096;52.302;4.634;2023-06-22T01:11:52;4.97;;;4.68;;
56653;SDS011;45096;52.302;4.634;2023-06-22T01:14:22;5.00;;;4.57;;
56653;SDS011;45096;52.302;4.634;2023-06-22T01:16:49;4.90;;;4.50;;
56653;SDS011;45096;52.302;4.634;2023-06-22T01:19:27;5.75;;;5.15;;
56653;SDS011;45096;52.302;4.634;2023-06-22T01:22:02;6.30;;;5.45;;
56653;SDS011;45096;52.302;4.634;2023-06-22T01:24:30;5.70;;;5.15;;
56653;SDS011;45096;52.302;4.634;2023-06-22T01:27:00;6.53;;;5.78;;
56653;SDS011;45096;52.302;4.634;2023-06-22T01:29:34;6.72;;;5.78;;
56653;SDS011;45096;52.302;4.634;2023-06-22T01:32:00;6.35;;;5.60;;
56653;SDS011;45096;52.302;4.634;2023-06-22T01:34:27;7.68;;;6.55;;
56653;SDS011;45096;52.302;4.634;2023-06-22T01:36:54;6.32;;;5.82;;
56653;SDS011;45096;52.302;4.634;2023-06-22T01:39:20;9.10;;;6.82;;
56653;SDS011;45096;52.302;4.634;2023-06-22T01:41:47;7.90;;;7.13;;
56653;SDS011;45096;52.302;4.634;2023-06-22T01:44:13;10.30;;;9.25;;
56653;SDS011;45096;52.302;4.634;2023-06-22T01:46:40;11.75;;;9.00;;
56653;SDS011;45096;52.302;4.634;2023-06-22T01:49:05;7.13;;;6.43;;
56653;SDS011;45096;52.302;4.634;2023-06-22T01:51:31;7.07;;;6.43;;
56653;SDS011;45096;52.302;4.634;2023-06-22T01:53:57;6.53;;;5.93;;
56653;SDS011;45096;52.302;4.634;2023-06-22T01:56:22;7.57;;;6.85;;
56653;SDS011;45096;52.302;4.634;2023-06-22T01:58:49;7.60;;;6.32;;
56653;SDS011;45096;52.302;4.634;2023-06-22T02:01:19;7.00;;;6.30;;
56653;SDS011;45096;52.302;4.634;2023-06-22T02:03:50;6.78;;;6.18;;
56653;SDS011;45096;52.302;4.634;2023-06-22T02:06:20;7.90;;;7.13;;
56653;SDS011;45096;52.302;4.634;2023-06-22T02:08:49;6.97;;;6.30;;
56653;SDS011;45096;52.302;4.634;2023-06-22T02:11:18;6.93;;;6.22;;
56653;SDS011;45096;52.302;4.634;2023-06-22T02:13:45;7.25;;;6.40;;
56653;SDS011;45096;52.302;4.634;2023-06-22T02:16:11;8.45;;;6.72;;
56653;SDS011;45096;52.302;4.634;2023-06-22T02:18:37;7.95;;;6.22;;
56653;SDS011;45096;52.302;4.634;2023-06-22T02:21:04;6.70;;;6.10;;
56653;SDS011;45096;52.302;4.634;2023-06-22T02:23:29;7.80;;;6.82;;
56653;SDS011;45096;52.302;4.634;2023-06-22T02:25:55;8.90;;;7.40;;
56653;SDS011;45096;52.302;4.634;2023-06-22T02:28:20;9.48;;;8.18;;
56653;SDS011;45096;52.302;4.634;2023-06-22T02:30:46;8.68;;;7.68;;
56653;SDS011;45096;52.302;4.634;2023-06-22T02:33:11;7.55;;;6.78;;
56653;SDS011;45096;52.302;4.634;2023-06-22T02:35:37;7.85;;;7.13;;
56653;SDS011;45096;52.302;4.634;2023-06-22T02:38:03;9.07;;;6.88;;
56653;SDS011;45096;52.302;4.634;2023-06-22T02:40:29;7.72;;;6.60;;
56653;SDS011;45096;52.302;4.634;2023-06-22T02:42:55;8.70;;;7.43;;
56653;SDS011;45096;52.302;4.634;2023-06-22T02:45:20;9.80;;;7.95;;
56653;SDS011;45096;52.302;4.634;2023-06-22T02:47:46;8.18;;;7.35;;
56653;SDS011;45096;52.302;4.634;2023-06-22T02:50:12;8.32;;;6.88;;
56653;SDS011;45096;52.302;4.634;2023-06-22T02:52:37;7.30;;;6.63;;
56653;SDS011;45096;52.302;4.634;2023-06-22T02:55:04;7.60;;;6.82;;
56653;SDS011;45096;52.302;4.634;2023-06-22T02:57:31;7.20;;;6.57;;
56653;SDS011;45096;52.302;4.634;2023-06-22T02:59:56;7.63;;;6.90;;
56653;SDS011;45096;52.302;4.634;2023-06-22T03:02:21;9.05;;;8.13;;
56653;SDS011;45096;52.302;4.634;2023-06-22T03:04:47;7.47;;;6.40;;
56653;SDS011;45096;52.302;4.634;2023-06-22T03:07:12;7.45;;;6.40;;
56653;SDS011;45096;52.302;4.634;2023-06-22T03:09:38;7.15;;;6.45;;
56653;SDS011;45096;52.302;4.634;2023-06-22T03:12:05;8.18;;;6.97;;
56653;SDS011;45096;52.302;4.634;2023-06-22T03:14:31;7.78;;;6.97;;
56653;SDS011;45096;52.302;4.634;2023-06-22T03:16:56;9.25;;;7.60;;
56653;SDS011;45096;52.302;4.634;2023-06-22T03:19:21;9.33;;;8.33;;
56653;SDS011;45096;52.302;4.634;2023-06-22T03:21:47;8.80;;;7.93;;
56653;SDS011;45096;52.302;4.634;2023-06-22T03:24:12;9.20;;;7.72;;
56653;SDS011;45096;52.302;4.634;2023-06-22T03:26:38;9.45;;;8.02;;
56653;SDS011;45096;52.302;4.634;2023-06-22T03:29:04;8.82;;;7.70;;
56653;SDS011;45096;52.302;4.634;2023-06-22T03:31:30;11.15;;;9.77;;
56653;SDS011;45096;52.302;4.634;2023-06-22T03:33:55;8.25;;;7.45;;
56653;SDS011;45096;52.302;4.634;2023-06-22T03:36:21;9.93;;;8.90;;
56653;SDS011;45096;52.302;4.634;2023-06-22T03:38:46;10.25;;;9.18;;
56653;SDS011;45096;52.302;4.634;2023-06-22T03:41:12;8.52;;;7.72;;
56653;SDS011;45096;52.302;4.634;2023-06-22T03:43:37;8.70;;;7.68;;
56653;SDS011;45096;52.302;4.634;2023-06-22T03:46:04;9.88;;;8.00;;
56653;SDS011;45096;52.302;4.634;2023-06-22T03:48:30;8.35;;;6.85;;
56653;SDS011;45096;52.302;4.634;2023-06-22T03:50:55;9.18;;;8.23;;
56653;SDS011;45096;52.302;4.634;2023-06-22T03:53:20;7.80;;;6.78;;
56653;SDS011;45096;52.302;4.634;2023-06-22T03:55:49;9.52;;;8.25;;
56653;SDS011;45096;52.302;4.634;2023-06-22T03:58:15;9.77;;;8.77;;
56653;SDS011;45096;52.302;4.634;2023-06-22T04:00:41;7.57;;;6.88;;
56653;SDS011;45096;52.302;4.634;2023-06-22T04:03:07;12.45;;;9.15;;
56653;SDS011;45096;52.302;4.634;2023-06-22T04:05:33;10.55;;;7.60;;
56653;SDS011;45096;52.302;4.634;2023-06-22T04:07:58;8.18;;;7.35;;
56653;SDS011;45096;52.302;4.634;2023-06-22T04:10:24;8.57;;;7.78;;
56653;SDS011;45096;52.302;4.634;2023-06-22T04:12:49;8.07;;;7.28;;
56653;SDS011;45096;52.302;4.634;2023-06-22T04:15:15;9.63;;;7.75;;
56653;SDS011;45096;52.302;4.634;2023-06-22T04:17:40;7.22;;;6.45;;
56653;SDS011;45096;52.302;4.634;2023-06-22T04:20:08;10.13;;;8.25;;
56653;SDS011;45096;52.302;4.634;2023-06-22T04:22:33;9.25;;;7.88;;
56653;SDS011;45096;52.302;4.634;2023-06-22T04:24:59;9.30;;;7.93;;
56653;SDS011;45096;52.302;4.634;2023-06-22T04:27:24;8.07;;;7.28;;
56653;SDS011;45096;52.302;4.634;2023-06-22T04:29:49;10.35;;;7.90;;
56653;SDS011;45096;52.302;4.634;2023-06-22T04:32:15;8.25;;;7.40;;
56653;SDS011;45096;52.302;4.634;2023-06-22T04:34:41;8.68;;;6.68;;
56653;SDS011;45096;52.302;4.634;2023-06-22T04:37:07;7.95;;;7.10;;
56653;SDS011;45096;52.302;4.634;2023-06-22T04:39:33;8.38;;;6.78;;
56653;SDS011;45096;52.302;4.634;2023-06-22T04:41:58;8.02;;;7.28;;
56653;SDS011;45096;52.302;4.634;2023-06-22T04:44:24;7.60;;;6.80;;
56653;SDS011;45096;52.302;4.634;2023-06-22T04:46:49;7.22;;;6.57;;
56653;SDS011;45096;52.302;4.634;2023-06-22T04:49:15;7.50;;;6.75;;
56653;SDS011;45096;52.302;4.634;2023-06-22T04:51:40;7.03;;;6.43;;
56653;SDS011;45096;52.302;4.634;2023-06-22T04:54:08;8.05;;;6.90;;
56653;SDS011;45096;52.302;4.634;2023-06-22T04:56:34;6.43;;;5.82;;
56653;SDS011;45096;52.302;4.634;2023-06-22T04:59:00;7.53;;;6.75;;
56653;SDS011;45096;52.302;4.634;2023-06-22T05:01:26;7.05;;;6.35;;
56653;SDS011;45096;52.302;4.634;2023-06-22T05:03:51;8.10;;;6.85;;
56653;SDS011;45096;52.302;4.634;2023-06-22T05:06:17;6.68;;;6.07;;
56653;SDS011;45096;52.302;4.634;2023-06-22T05:08:43;6.78;;;6.07;;
56653;SDS011;45096;52.302;4.634;2023-06-22T05:11:09;7.10;;;6.40;;
56653;SDS011;45096;52.302;4.634;2023-06-22T05:13:35;7.38;;;6.60;;
56653;SDS011;45096;52.302;4.634;2023-06-22T05:16:00;7.55;;;6.85;;
56653;SDS011;45096;52.302;4.634;2023-06-22T05:18:26;8.10;;;6.97;;
56653;SDS011;45096;52.302;4.634;2023-06-22T05:20:51;7.47;;;6.68;;
56653;SDS011;45096;52.302;4.634;2023-06-22T05:23:17;8.50;;;7.63;;
56653;SDS011;45096;52.302;4.634;2023-06-22T05:25:42;7.75;;;6.60;;
56653;SDS011;45096;52.302;4.634;2023-06-22T05:28:09;7.78;;;6.70;;
56653;SDS011;45096;52.302;4.634;2023-06-22T05:30:34;9.82;;;7.78;;
56653;SDS011;45096;52.302;4.634;2023-06-22T05:33:00;8.23;;;7.38;;
56653;SDS011;45096;52.302;4.634;2023-06-22T05:35:25;8.35;;;7.35;;
56653;SDS011;45096;52.302;4.634;2023-06-22T05:37:50;8.27;;;6.95;;
56653;SDS011;45096;52.302;4.634;2023-06-22T05:40:16;9.02;;;7.35;;
56653;SDS011;45096;52.302;4.634;2023-06-22T05:42:41;8.18;;;6.90;;
56653;SDS011;45096;52.302;4.634;2023-06-22T05:45:09;8.07;;;7.28;;
56653;SDS011;45096;52.302;4.634;2023-06-22T05:47:34;9.75;;;6.88;;
56653;SDS011;45096;52.302;4.634;2023-06-22T05:50:00;8.30;;;7.35;;
56653;SDS011;45096;52.302;4.634;2023-06-22T05:52:25;7.82;;;7.03;;
56653;SDS011;45096;52.302;4.634;2023-06-22T05:54:51;8.77;;;7.75;;
56653;SDS011;45096;52.302;4.634;2023-06-22T05:57:16;7.53;;;6.80;;
56653;SDS011;45096;52.302;4.634;2023-06-22T05:59:42;8.02;;;7.22;;
56653;SDS011;45096;52.302;4.634;2023-06-22T06:02:08;11.38;;;7.97;;
56653;SDS011;45096;52.302;4.634;2023-06-22T06:04:34;11.70;;;7.72;;
56653;SDS011;45096;52.302;4.634;2023-06-22T06:06:59;9.50;;;8.15;;
56653;SDS011;45096;52.302;4.634;2023-06-22T06:09:24;8.93;;;7.43;;
56653;SDS011;45096;52.302;4.634;2023-06-22T06:11:50;7.90;;;7.10;;
56653;SDS011;45096;52.302;4.634;2023-06-22T06:14:15;6.75;;;6.07;;
56653;SDS011;45096;52.302;4.634;2023-06-22T06:16:41;9.32;;;7.18;;
56653;SDS011;45096;52.302;4.634;2023-06-22T06:19:07;8.05;;;6.97;;
56653;SDS011;45096;52.302;4.634;2023-06-22T06:21:33;10.05;;;7.55;;
56653;SDS011;45096;52.302;4.634;2023-06-22T06:23:58;9.27;;;7.80;;
56653;SDS011;45096;52.302;4.634;2023-06-22T06:26:24;9.40;;;8.38;;
56653;SDS011;45096;52.302;4.634;2023-06-22T06:28:49;14.35;;;11.93;;
56653;SDS011;45096;52.302;4.634;2023-06-22T06:31:15;20.92;;;16.33;;
56653;SDS011;45096;52.302;4.634;2023-06-22T06:33:40;19.98;;;15.75;;
56653;SDS011;45096;52.302;4.634;2023-06-22T06:36:07;23.38;;;17.33;;
56653;SDS011;45096;52.302;4.634;2023-06-22T06:38:32;21.92;;;16.70;;
56653;SDS011;45096;52.302;4.634;2023-06-22T06:40:58;20.27;;;14.85;;
56653;SDS011;45096;52.302;4.634;2023-06-22T06:43:23;15.85;;;13.48;;
56653;SDS011;45096;52.302;4.634;2023-06-22T06:45:49;17.05;;;14.60;;
56653;SDS011;45096;52.302;4.634;2023-06-22T06:48:14;15.20;;;13.43;;
56653;SDS011;45096;52.302;4.634;2023-06-22T06:50:40;15.50;;;12.88;;
56653;SDS011;45096;52.302;4.634;2023-06-22T06:53:06;16.95;;;12.15;;
56653;SDS011;45096;52.302;4.634;2023-06-22T06:55:32;17.08;;;11.98;;
56653;SDS011;45096;52.302;4.634;2023-06-22T06:57:57;14.25;;;11.18;;
56653;SDS011;45096;52.302;4.634;2023-06-22T07:00:23;16.40;;;13.55;;
56653;SDS011;45096;52.302;4.634;2023-06-22T07:02:48;14.13;;;12.65;;
56653;SDS011;45096;52.302;4.634;2023-06-22T07:05:14;14.43;;;12.27;;
56653;SDS011;45096;52.302;4.634;2023-06-22T07:07:39;13.50;;;11.25;;
56653;SDS011;45096;52.302;4.634;2023-06-22T07:10:07;15.65;;;11.10;;
56653;SDS011;45096;52.302;4.634;2023-06-22T07:12:32;12.70;;;10.25;;
56653;SDS011;45096;52.302;4.634;2023-06-22T07:15:01;11.43;;;9.70;;
56653;SDS011;45096;52.302;4.634;2023-06-22T07:17:27;11.02;;;9.48;;
56653;SDS011;45096;52.302;4.634;2023-06-22T07:19:53;14.13;;;10.30;;
56653;SDS011;45096;52.302;4.634;2023-06-22T07:22:18;10.75;;;8.95;;
56653;SDS011;45096;52.302;4.634;2023-06-22T07:24:43;10.35;;;7.78;;
56653;SDS011;45096;52.302;4.634;2023-06-22T07:27:10;11.02;;;8.40;;
56653;SDS011;45096;52.302;4.634;2023-06-22T07:29:36;11.23;;;8.63;;
56653;SDS011;45096;52.302;4.634;2023-06-22T07:32:01;10.98;;;8.02;;
56653;SDS011;45096;52.302;4.634;2023-06-22T07:34:27;10.40;;;8.05;;
56653;SDS011;45096;52.302;4.634;2023-06-22T07:36:52;9.93;;;7.60;;
56653;SDS011;45096;52.302;4.634;2023-06-22T07:39:18;7.90;;;6.85;;
56653;SDS011;45096;52.302;4.634;2023-06-22T07:41:43;9.77;;;7.10;;
56653;SDS011;45096;52.302;4.634;2023-06-22T07:44:10;9.55;;;7.22;;
56653;SDS011;45096;52.302;4.634;2023-06-22T07:46:35;7.93;;;7.07;;
56653;SDS011;45096;52.302;4.634;2023-06-22T07:49:01;9.35;;;7.22;;
56653;SDS011;45096;52.302;4.634;2023-06-22T07:51:27;7.15;;;6.45;;
56653;SDS011;45096;52.302;4.634;2023-06-22T07:53:52;10.40;;;7.63;;
56653;SDS011;45096;52.302;4.634;2023-06-22T07:56:18;9.50;;;7.22;;
56653;SDS011;45096;52.302;4.634;2023-06-22T07:58:43;7.68;;;6.88;;
56653;SDS011;45096;52.302;4.634;2023-06-22T08:01:10;7.93;;;6.32;;
56653;SDS011;45096;52.302;4.634;2023-06-22T08:03:35;9.13;;;6.57;;
56653;SDS011;45096;52.302;4.634;2023-06-22T08:06:01;7.85;;;7.05;;
56653;SDS011;45096;52.302;4.634;2023-06-22T08:08:26;11.07;;;7.60;;
56653;SDS011;45096;52.302;4.634;2023-06-22T08:10:52;6.85;;;6.15;;
56653;SDS011;45096;52.302;4.634;2023-06-22T08:13:17;8.02;;;6.75;;
56653;SDS011;45096;52.302;4.634;2023-06-22T08:15:42;8.63;;;6.88;;
56653;SDS011;45096;52.302;4.634;2023-06-22T08:18:09;8.52;;;6.90;;
56653;SDS011;45096;52.302;4.634;2023-06-22T08:20:35;7.78;;;6.88;;
56653;SDS011;45096;52.302;4.634;2023-06-22T08:23:00;10.13;;;7.55;;
56653;SDS011;45096;52.302;4.634;2023-06-22T08:25:26;6.78;;;6.10;;
56653;SDS011;45096;52.302;4.634;2023-06-22T08:27:51;6.65;;;5.70;;
56653;SDS011;45096;52.302;4.634;2023-06-22T08:30:17;5.93;;;4.78;;
56653;SDS011;45096;52.302;4.634;2023-06-22T08:32:42;7.03;;;6.22;;
56653;SDS011;45096;52.302;4.634;2023-06-22T08:35:09;7.65;;;6.55;;
56653;SDS011;45096;52.302;4.634;2023-06-22T08:37:34;10.32;;;6.75;;
56653;SDS011;45096;52.302;4.634;2023-06-22T08:40:01;8.93;;;6.63;;
56653;SDS011;45096;52.302;4.634;2023-06-22T08:42:28;7.47;;;6.20;;
56653;SDS011;45096;52.302;4.634;2023-06-22T08:44:53;9.40;;;8.27;;
56653;SDS011;45096;52.302;4.634;2023-06-22T08:47:19;9.85;;;8.77;;
56653;SDS011;45096;52.302;4.634;2023-06-22T08:49:44;9.30;;;8.20;;
56653;SDS011;45096;52.302;4.634;2023-06-22T08:52:11;10.55;;;9.07;;
56653;SDS011;45096;52.302;4.634;2023-06-22T08:54:36;8.15;;;7.25;;
56653;SDS011;45096;52.302;4.634;2023-06-22T08:57:02;8.45;;;6.65;;
56653;SDS011;45096;52.302;4.634;2023-06-22T08:59:27;7.32;;;6.32;;
56653;SDS011;45096;52.302;4.634;2023-06-22T09:01:53;8.82;;;6.28;;
56653;SDS011;45096;52.302;4.634;2023-06-22T09:04:18;7.47;;;6.22;;
56653;SDS011;45096;52.302;4.634;2023-06-22T09:06:44;7.13;;;6.43;;
56653;SDS011;45096;52.302;4.634;2023-06-22T09:09:11;8.43;;;6.88;;
56653;SDS011;45096;52.302;4.634;2023-06-22T09:11:37;7.40;;;6.70;;
56653;SDS011;45096;52.302;4.634;2023-06-22T09:14:03;7.05;;;6.38;;
56653;SDS011;45096;52.302;4.634;2023-06-22T09:16:28;7.03;;;6.38;;
56653;SDS011;45096;52.302;4.634;2023-06-22T09:18:54;6.88;;;6.28;;
56653;SDS011;45096;52.302;4.634;2023-06-22T09:21:19;6.28;;;5.68;;
56653;SDS011;45096;52.302;4.634;2023-06-22T09:23:44;6.55;;;5.88;;
56653;SDS011;45096;52.302;4.634;2023-06-22T09:26:11;8.40;;;6.20;;
56653;SDS011;45096;52.302;4.634;2023-06-22T09:28:37;8.32;;;6.47;;
56653;SDS011;45096;52.302;4.634;2023-06-22T09:31:03;7.20;;;6.35;;
56653;SDS011;45096;52.302;4.634;2023-06-22T09:33:28;6.45;;;5.47;;
56653;SDS011;45096;52.302;4.634;2023-06-22T09:35:54;6.43;;;5.53;;
56653;SDS011;45096;52.302;4.634;2023-06-22T09:38:19;6.10;;;5.50;;
56653;SDS011;45096;52.302;4.634;2023-06-22T09:40:44;8.38;;;6.10;;
56653;SDS011;45096;52.302;4.634;2023-06-22T09:43:11;5.38;;;4.97;;
56653;SDS011;45096;52.302;4.634;2023-06-22T09:45:37;5.97;;;5.25;;
56653;SDS011;45096;52.302;4.634;2023-06-22T09:48:02;5.28;;;4.78;;
56653;SDS011;45096;52.302;4.634;2023-06-22T09:50:28;6.07;;;5.47;;
56653;SDS011;45096;52.302;4.634;2023-06-22T09:52:53;6.40;;;5.78;;
56653;SDS011;45096;52.302;4.634;2023-06-22T09:55:18;7.00;;;5.65;;
56653;SDS011;45096;52.302;4.634;2023-06-22T09:57:44;4.95;;;4.55;;
56653;SDS011;45096;52.302;4.634;2023-06-22T10:00:11;6.60;;;5.25;;
56653;SDS011;45096;52.302;4.634;2023-06-22T10:02:37;5.60;;;5.18;;
56653;SDS011;45096;52.302;4.634;2023-06-22T10:05:03;5.68;;;5.10;;
56653;SDS011;45096;52.302;4.634;2023-06-22T10:07:29;8.32;;;5.70;;
56653;SDS011;45096;52.302;4.634;2023-06-22T10:09:54;6.47;;;5.88;;
56653;SDS011;45096;52.302;4.634;2023-06-22T10:12:20;6.90;;;6.10;;
56653;SDS011;45096;52.302;4.634;2023-06-22T10:14:45;8.27;;;5.68;;
56653;SDS011;45096;52.302;4.634;2023-06-22T10:17:12;8.60;;;6.35;;
56653;SDS011;45096;52.302;4.634;2023-06-22T10:19:37;7.10;;;6.15;;
56653;SDS011;45096;52.302;4.634;2023-06-22T10:22:03;10.50;;;7.97;;
56653;SDS011;45096;52.302;4.634;2023-06-22T10:24:29;8.57;;;7.68;;
56653;SDS011;45096;52.302;4.634;2023-06-22T10:26:54;10.52;;;8.23;;
56653;SDS011;45096;52.302;4.634;2023-06-22T10:29:20;8.88;;;7.95;;
56653;SDS011;45096;52.302;4.634;2023-06-22T10:31:45;8.95;;;8.05;;
56653;SDS011;45096;52.302;4.634;2023-06-22T10:34:12;8.70;;;7.88;;
56653;SDS011;45096;52.302;4.634;2023-06-22T10:36:38;8.80;;;7.40;;
56653;SDS011;45096;52.302;4.634;2023-06-22T10:39:03;10.30;;;8.15;;
56653;SDS011;45096;52.302;4.634;2023-06-22T10:41:30;9.88;;;8.05;;
56653;SDS011;45096;52.302;4.634;2023-06-22T10:43:55;8.63;;;7.30;;
56653;SDS011;45096;52.302;4.634;2023-06-22T10:46:21;8.60;;;7.45;;
56653;SDS011;45096;52.302;4.634;2023-06-22T10:48:46;7.28;;;6.63;;
56653;SDS011;45096;52.302;4.634;2023-06-22T10:51:13;8.75;;;7.80;;
56653;SDS011;45096;52.302;4.634;2023-06-22T10:53:38;8.45;;;6.07;;
56653;SDS011;45096;52.302;4.634;2023-06-22T10:56:04;9.07;;;6.40;;
56653;SDS011;45096;52.302;4.634;2023-06-22T10:58:29;6.50;;;5.47;;
56653;SDS011;45096;52.302;4.634;2023-06-22T11:00:55;9.07;;;6.22;;
56653;SDS011;45096;52.302;4.634;2023-06-22T11:03:20;5.72;;;5.10;;
56653;SDS011;45096;52.302;4.634;2023-06-22T11:05:45;6.28;;;5.22;;
56653;SDS011;45096;52.302;4.634;2023-06-22T11:08:12;7.15;;;6.38;;
56653;SDS011;45096;52.302;4.634;2023-06-22T11:10:38;8.13;;;6.32;;
56653;SDS011;45096;52.302;4.634;2023-06-22T11:13:03;5.15;;;4.45;;
56653;SDS011;45096;52.302;4.634;2023-06-22T11:15:28;5.47;;;4.95;;
56653;SDS011;45096;52.302;4.634;2023-06-22T11:17:54;5.95;;;5.35;;
56653;SDS011;45096;52.302;4.634;2023-06-22T11:20:19;6.45;;;5.20;;
56653;SDS011;45096;52.302;4.634;2023-06-22T11:22:45;5.00;;;4.35;;
56653;SDS011;45096;52.302;4.634;2023-06-22T11:25:12;5.22;;;4.50;;
56653;SDS011;45096;52.302;4.634;2023-06-22T11:27:37;5.32;;;4.82;;
56653;SDS011;45096;52.302;4.634;2023-06-22T11:30:03;5.85;;;5.00;;
56653;SDS011;45096;52.302;4.634;2023-06-22T11:32:29;5.03;;;4.53;;
56653;SDS011;45096;52.302;4.634;2023-06-22T11:34:55;7.35;;;5.75;;
56653;SDS011;45096;52.302;4.634;2023-06-22T11:37:20;6.18;;;5.35;;
56653;SDS011;45096;52.302;4.634;2023-06-22T11:39:45;5.53;;;4.13;;
56653;SDS011;45096;52.302;4.634;2023-06-22T11:42:12;5.82;;;5.20;;
56653;SDS011;45096;52.302;4.634;2023-06-22T11:44:38;5.15;;;4.75;;
56653;SDS011;45096;52.302;4.634;2023-06-22T11:47:03;5.55;;;5.05;;
56653;SDS011;45096;52.302;4.634;2023-06-22T11:49:29;11.80;;;6.35;;
56653;SDS011;45096;52.302;4.634;2023-06-22T11:51:55;6.78;;;5.60;;
56653;SDS011;45096;52.302;4.634;2023-06-22T11:54:20;5.93;;;4.72;;
56653;SDS011;45096;52.302;4.634;2023-06-22T11:56:46;6.60;;;4.88;;
56653;SDS011;45096;52.302;4.634;2023-06-22T11:59:13;5.63;;;5.13;;
56653;SDS011;45096;52.302;4.634;2023-06-22T12:01:38;7.13;;;5.68;;
56653;SDS011;45096;52.302;4.634;2023-06-22T12:04:03;6.35;;;5.70;;
56653;SDS011;45096;52.302;4.634;2023-06-22T12:06:29;6.35;;;5.53;;
56653;SDS011;45096;52.302;4.634;2023-06-22T12:08:54;7.22;;;5.40;;
56653;SDS011;45096;52.302;4.634;2023-06-22T12:11:20;8.15;;;6.60;;
56653;SDS011;45096;52.302;4.634;2023-06-22T12:13:45;6.07;;;5.35;;
56653;SDS011;45096;52.302;4.634;2023-06-22T12:16:12;6.70;;;5.45;;
56653;SDS011;45096;52.302;4.634;2023-06-22T12:18:37;9.15;;;7.05;;
56653;SDS011;45096;52.302;4.634;2023-06-22T12:21:03;6.13;;;5.55;;
56653;SDS011;45096;52.302;4.634;2023-06-22T12:23:29;5.97;;;5.43;;
56653;SDS011;45096;52.302;4.634;2023-06-22T12:25:54;7.80;;;6.50;;
56653;SDS011;45096;52.302;4.634;2023-06-22T12:28:19;5.22;;;4.60;;
56653;SDS011;45096;52.302;4.634;2023-06-22T12:30:45;7.13;;;6.18;;
56653;SDS011;45096;52.302;4.634;2023-06-22T12:33:12;6.22;;;5.50;;
56653;SDS011;45096;52.302;4.634;2023-06-22T12:35:37;7.57;;;6.65;;
56653;SDS011;45096;52.302;4.634;2023-06-22T12:38:03;6.18;;;5.55;;
56653;SDS011;45096;52.302;4.634;2023-06-22T12:40:28;5.65;;;5.15;;
56653;SDS011;45096;52.302;4.634;2023-06-22T12:42:53;7.63;;;5.65;;
56653;SDS011;45096;52.302;4.634;2023-06-22T12:45:19;5.80;;;5.40;;
56653;SDS011;45096;52.302;4.634;2023-06-22T12:47:44;6.75;;;5.85;;
56653;SDS011;45096;52.302;4.634;2023-06-22T12:50:11;8.25;;;5.55;;
56653;SDS011;45096;52.302;4.634;2023-06-22T12:52:37;5.93;;;5.32;;
56653;SDS011;45096;52.302;4.634;2023-06-22T12:55:02;7.47;;;5.70;;
56653;SDS011;45096;52.302;4.634;2023-06-22T12:57:28;5.28;;;4.70;;
56653;SDS011;45096;52.302;4.634;2023-06-22T12:59:53;6.55;;;5.97;;
56653;SDS011;45096;52.302;4.634;2023-06-22T13:02:18;6.45;;;5.85;;
56653;SDS011;45096;52.302;4.634;2023-06-22T13:04:44;4.80;;;4.43;;
56653;SDS011;45096;52.302;4.634;2023-06-22T13:07:11;5.75;;;5.10;;
56653;SDS011;45096;52.302;4.634;2023-06-22T13:09:36;6.05;;;5.50;;
56653;SDS011;45096;52.302;4.634;2023-06-22T13:12:01;5.60;;;5.10;;
56653;SDS011;45096;52.302;4.634;2023-06-22T13:14:27;5.22;;;4.72;;
56653;SDS011;45096;52.302;4.634;2023-06-22T13:16:52;7.60;;;5.68;;
56653;SDS011;45096;52.302;4.634;2023-06-22T13:19:18;5.70;;;5.15;;
56653;SDS011;45096;52.302;4.634;2023-06-22T13:21:43;5.07;;;4.45;;
56653;SDS011;45096;52.302;4.634;2023-06-22T13:24:10;5.53;;;4.88;;
56653;SDS011;45096;52.302;4.634;2023-06-22T13:26:35;7.15;;;4.68;;
56653;SDS011;45096;52.302;4.634;2023-06-22T13:29:01;5.38;;;4.75;;
56653;SDS011;45096;52.302;4.634;2023-06-22T13:31:26;5.93;;;5.10;;
56653;SDS011;45096;52.302;4.634;2023-06-22T13:33:52;5.47;;;4.97;;
56653;SDS011;45096;52.302;4.634;2023-06-22T13:36:17;4.80;;;4.40;;
56653;SDS011;45096;52.302;4.634;2023-06-22T13:38:42;4.38;;;3.85;;
56653;SDS011;45096;52.302;4.634;2023-06-22T13:41:09;5.13;;;4.72;;
56653;SDS011;45096;52.302;4.634;2023-06-22T13:43:35;4.90;;;4.45;;
56653;SDS011;45096;52.302;4.634;2023-06-22T13:46:00;4.38;;;4.07;;
56653;SDS011;45096;52.302;4.634;2023-06-22T13:48:26;4.63;;;4.13;;
56653;SDS011;45096;52.302;4.634;2023-06-22T13:50:51;4.60;;;4.22;;
56653;SDS011;45096;52.302;4.634;2023-06-22T13:53:16;4.85;;;4.30;;
56653;SDS011;45096;52.302;4.634;2023-06-22T13:55:42;5.32;;;4.82;;
56653;SDS011;45096;52.302;4.634;2023-06-22T13:58:09;6.32;;;5.72;;
56653;SDS011;45096;52.302;4.634;2023-06-22T14:00:34;5.78;;;5.07;;
56653;SDS011;45096;52.302;4.634;2023-06-22T14:02:59;5.45;;;4.93;;
56653;SDS011;45096;52.302;4.634;2023-06-22T14:05:25;6.43;;;5.90;;
56653;SDS011;45096;52.302;4.634;2023-06-22T14:07:50;9.40;;;6.90;;
56653;SDS011;45096;52.302;4.634;2023-06-22T14:10:16;8.98;;;5.70;;
56653;SDS011;45096;52.302;4.634;2023-06-22T14:12:41;5.82;;;4.85;;
56653;SDS011;45096;52.302;4.634;2023-06-22T14:15:08;5.63;;;4.22;;
56653;SDS011;45096;52.302;4.634;2023-06-22T14:17:34;4.72;;;4.28;;
56653;SDS011;45096;52.302;4.634;2023-06-22T14:19:59;5.45;;;4.15;;
56653;SDS011;45096;52.302;4.634;2023-06-22T14:22:25;5.40;;;4.72;;
56653;SDS011;45096;52.302;4.634;2023-06-22T14:24:50;4.72;;;3.92;;
56653;SDS011;45096;52.302;4.634;2023-06-22T14:27:16;4.50;;;3.85;;
56653;SDS011;45096;52.302;4.634;2023-06-22T14:29:41;4.82;;;3.95;;
56653;SDS011;45096;52.302;4.634;2023-06-22T14:32:09;4.35;;;3.95;;
56653;SDS011;45096;52.302;4.634;2023-06-22T14:34:34;4.78;;;4.20;;
56653;SDS011;45096;52.302;4.634;2023-06-22T14:37:00;4.60;;;4.20;;